createdAt,value
2018-12-03T00:00:02.394Z,0.4
2018-12-03T00:00:09.109Z,0.3
2018-12-03T00:00:15.857Z,0.3
2018-12-03T00:00:22.559Z,0.3
2018-12-03T00:00:29.259Z,0.3
2018-12-03T00:00:35.970Z,0.4
2018-12-03T00:00:42.687Z,0.4
2018-12-03T00:00:49.448Z,0.4
2018-12-03T00:00:56.145Z,0.4
2018-12-03T00:01:02.862Z,0.4
2018-12-03T00:01:09.609Z,0.4
2018-12-03T00:01:17.312Z,0.4
2018-12-03T00:01:24.025Z,0.3
2018-12-03T00:01:30.737Z,0.3
2018-12-03T00:01:37.521Z,0.3
2018-12-03T00:01:44.220Z,0.3
2018-12-03T00:01:50.958Z,0.4
2018-12-03T00:01:57.656Z,0.4
2018-12-03T00:02:04.359Z,0.5
2018-12-03T00:02:11.077Z,0.5
2018-12-03T00:02:18.493Z,0.4
2018-12-03T00:02:25.241Z,0.4
2018-12-03T00:02:31.974Z,0.4
2018-12-03T00:02:39.714Z,0.4
2018-12-03T00:02:46.398Z,0.4
2018-12-03T00:02:53.136Z,0.5
2018-12-03T00:02:59.889Z,0.5
2018-12-03T00:03:06.562Z,0.5
2018-12-03T00:03:13.304Z,0.5
2018-12-03T00:03:20.090Z,0.5
2018-12-03T00:03:26.794Z,0.5
2018-12-03T00:03:33.575Z,0.7
2018-12-03T00:03:40.353Z,0.8
2018-12-03T00:03:47.034Z,0.7
2018-12-03T00:03:53.781Z,0.6
2018-12-03T00:04:00.486Z,0.5
2018-12-03T00:04:07.172Z,0.5
2018-12-03T00:04:13.890Z,0.3
2018-12-03T00:04:20.603Z,0.3
2018-12-03T00:04:27.354Z,0.4
2018-12-03T00:04:34.087Z,0.4
2018-12-03T00:04:40.762Z,0.6
2018-12-03T00:04:47.507Z,0.6
2018-12-03T00:04:54.175Z,0.6
2018-12-03T00:05:00.879Z,0.7
2018-12-03T00:05:07.585Z,0.7
2018-12-03T00:05:14.284Z,0.5
2018-12-03T00:05:21.037Z,0.7
2018-12-03T00:05:27.782Z,0.7
2018-12-03T00:05:34.493Z,0.7
2018-12-03T00:05:41.169Z,0.7
2018-12-03T00:05:47.868Z,0.7
2018-12-03T00:05:55.674Z,0.4
2018-12-03T00:06:02.344Z,0.4
2018-12-03T00:06:10.060Z,0.5
2018-12-03T00:06:16.807Z,0.5
2018-12-03T00:06:23.603Z,0.6
2018-12-03T00:06:30.403Z,0.4
2018-12-03T00:06:37.214Z,0.5
2018-12-03T00:06:44.800Z,0.5
2018-12-03T00:06:51.623Z,0.4
2018-12-03T00:06:58.304Z,0.4
2018-12-03T00:07:05.005Z,0.3
2018-12-03T00:07:11.690Z,0.3
2018-12-03T00:07:18.385Z,0.4
2018-12-03T00:07:25.092Z,0.3
2018-12-03T00:07:32.777Z,0.3
2018-12-03T00:07:39.472Z,0.3
2018-12-03T00:07:46.203Z,0.4
2018-12-03T00:07:52.917Z,0.5
2018-12-03T00:07:59.649Z,0.5
2018-12-03T00:08:06.378Z,0.7
2018-12-03T00:08:13.094Z,0.4
2018-12-03T00:08:19.786Z,0.5
2018-12-03T00:08:26.571Z,1
2018-12-03T00:08:33.272Z,0.8
2018-12-03T00:08:39.948Z,0.8
2018-12-03T00:08:46.653Z,0.6
2018-12-03T00:08:53.406Z,0.6
2018-12-03T00:09:00.136Z,0.3
2018-12-03T00:09:07.875Z,0.5
2018-12-03T00:09:14.586Z,0.5
2018-12-03T00:09:21.337Z,0.6
2018-12-03T00:09:29.019Z,0.6
2018-12-03T00:09:35.781Z,0.6
2018-12-03T00:09:42.459Z,0.6
2018-12-03T00:09:49.157Z,0.5
2018-12-03T00:09:55.811Z,0.5
2018-12-03T00:10:02.579Z,0.4
2018-12-03T00:10:09.327Z,0.4
2018-12-03T00:10:16.048Z,0.4
2018-12-03T00:10:22.796Z,0.4
2018-12-03T00:10:30.094Z,0.5
2018-12-03T00:10:36.873Z,0.5
2018-12-03T00:10:43.593Z,0.5
2018-12-03T00:10:50.285Z,0.5
2018-12-03T00:10:58.021Z,0.6
2018-12-03T00:11:04.749Z,0.4
2018-12-03T00:11:11.476Z,0.3
2018-12-03T00:11:18.136Z,0.4
2018-12-03T00:11:24.843Z,0.4
2018-12-03T00:11:31.623Z,0.4
2018-12-03T00:11:38.281Z,0.4
2018-12-03T00:11:45.068Z,0.3
2018-12-03T00:11:51.762Z,0.3
2018-12-03T00:11:58.424Z,0.4
2018-12-03T00:12:05.147Z,0.4
2018-12-03T00:12:11.835Z,0.8
2018-12-03T00:12:19.076Z,0.7
2018-12-03T00:12:25.758Z,0.8
2018-12-03T00:12:32.402Z,0.7
2018-12-03T00:12:39.080Z,0.4
2018-12-03T00:12:45.788Z,0.4
2018-12-03T00:12:52.549Z,0.4
2018-12-03T00:12:59.218Z,0.5
2018-12-03T00:13:06.032Z,0.4
2018-12-03T00:13:12.760Z,0.4
2018-12-03T00:13:19.544Z,0.4
2018-12-03T00:13:26.287Z,0.4
2018-12-03T00:13:33.049Z,0.3
2018-12-03T00:13:39.771Z,0.4
2018-12-03T00:13:46.460Z,0.6
2018-12-03T00:13:53.109Z,0.4
2018-12-03T00:13:59.871Z,0.3
2018-12-03T00:14:06.595Z,0.3
2018-12-03T00:14:13.264Z,0.7
2018-12-03T00:14:19.940Z,0.7
2018-12-03T00:14:26.616Z,0.7
2018-12-03T00:14:33.323Z,0.9
2018-12-03T00:14:40.037Z,0.5
2018-12-03T00:14:46.762Z,0.4
2018-12-03T00:14:53.479Z,0.4
2018-12-03T00:15:00.232Z,0.5
2018-12-03T00:15:06.906Z,0.3
2018-12-03T00:15:13.585Z,0.3
2018-12-03T00:15:20.221Z,0.5
2018-12-03T00:15:26.940Z,0.5
2018-12-03T00:15:33.681Z,0.3
2018-12-03T00:15:41.390Z,0.3
2018-12-03T00:15:48.065Z,0.3
2018-12-03T00:15:54.754Z,0.3
2018-12-03T00:16:01.400Z,0.4
2018-12-03T00:16:08.063Z,0.4
2018-12-03T00:16:14.735Z,0.4
2018-12-03T00:16:21.442Z,0.5
2018-12-03T00:16:29.153Z,0.4
2018-12-03T00:16:36.812Z,0.4
2018-12-03T00:16:43.486Z,0.4
2018-12-03T00:16:51.206Z,0.4
2018-12-03T00:16:57.958Z,0.5
2018-12-03T00:17:04.710Z,0.5
2018-12-03T00:17:11.397Z,0.5
2018-12-03T00:17:18.130Z,0.5
2018-12-03T00:17:24.873Z,0.5
2018-12-03T00:17:31.604Z,0.8
2018-12-03T00:17:38.356Z,0.8
2018-12-03T00:17:45.102Z,1.9
2018-12-03T00:17:51.827Z,2
2018-12-03T00:17:58.547Z,1.4
2018-12-03T00:18:05.247Z,1.5
2018-12-03T00:18:11.979Z,0.5
2018-12-03T00:18:18.694Z,0.4
2018-12-03T00:18:25.380Z,0.5
2018-12-03T00:18:32.050Z,0.5
2018-12-03T00:18:38.771Z,0.5
2018-12-03T00:18:45.497Z,0.5
2018-12-03T00:18:52.230Z,0.5
2018-12-03T00:18:58.933Z,0.5
2018-12-03T00:19:05.642Z,0.5
2018-12-03T00:19:12.349Z,0.4
2018-12-03T00:19:19.056Z,0.2
2018-12-03T00:19:25.785Z,1.1
2018-12-03T00:19:33.492Z,0.9
2018-12-03T00:19:40.151Z,1.1
2018-12-03T00:19:46.813Z,1.1
2018-12-03T00:19:53.482Z,0.5
2018-12-03T00:20:00.200Z,0.6
2018-12-03T00:20:06.882Z,0.6
2018-12-03T00:20:13.564Z,0.5
2018-12-03T00:20:20.285Z,0.4
2018-12-03T00:20:27.005Z,0.5
2018-12-03T00:20:33.718Z,0.4
2018-12-03T00:20:40.471Z,0.3
2018-12-03T00:20:47.289Z,1
2018-12-03T00:20:53.978Z,1
2018-12-03T00:21:00.698Z,0.8
2018-12-03T00:21:07.486Z,0.9
2018-12-03T00:21:14.263Z,0.9
2018-12-03T00:21:22.047Z,0.4
2018-12-03T00:21:29.837Z,0.4
2018-12-03T00:21:36.542Z,0.3
2018-12-03T00:21:43.263Z,0.3
2018-12-03T00:21:49.996Z,0.3
2018-12-03T00:21:56.696Z,0.3
2018-12-03T00:22:03.365Z,0.3
2018-12-03T00:22:10.090Z,0.4
2018-12-03T00:22:16.839Z,1.1
2018-12-03T00:22:23.538Z,1.1
2018-12-03T00:22:30.249Z,1.3
2018-12-03T00:22:36.954Z,1.4
2018-12-03T00:22:43.644Z,0.7
2018-12-03T00:22:50.362Z,0.7
2018-12-03T00:22:57.058Z,0.4
2018-12-03T00:23:03.849Z,0.4
2018-12-03T00:23:10.570Z,0.4
2018-12-03T00:23:17.276Z,0.4
2018-12-03T00:23:23.990Z,0.5
2018-12-03T00:23:31.655Z,0.6
2018-12-03T00:23:38.346Z,0.6
2018-12-03T00:23:45.077Z,0.6
2018-12-03T00:23:51.802Z,0.4
2018-12-03T00:23:58.534Z,0.3
2018-12-03T00:24:05.276Z,0.3
2018-12-03T00:24:11.961Z,0.3
2018-12-03T00:24:18.694Z,0.4
2018-12-03T00:24:25.416Z,0.4
2018-12-03T00:24:32.089Z,0.4
2018-12-03T00:24:39.767Z,0.5
2018-12-03T00:24:46.509Z,0.8
2018-12-03T00:24:53.195Z,0.9
2018-12-03T00:24:59.966Z,0.8
2018-12-03T00:25:07.239Z,0.8
2018-12-03T00:25:13.966Z,0.4
2018-12-03T00:25:20.704Z,0.4
2018-12-03T00:25:27.398Z,0.4
2018-12-03T00:25:34.125Z,0.4
2018-12-03T00:25:41.618Z,0.3
2018-12-03T00:25:48.316Z,0.7
2018-12-03T00:25:55.066Z,1.3
2018-12-03T00:26:01.766Z,1.1
2018-12-03T00:26:08.476Z,1.1
2018-12-03T00:26:15.136Z,0.8
2018-12-03T00:26:21.877Z,0.7
2018-12-03T00:26:28.652Z,0.3
2018-12-03T00:26:35.414Z,0.3
2018-12-03T00:26:42.160Z,0.3
2018-12-03T00:26:48.908Z,0.3
2018-12-03T00:26:56.604Z,0.4
2018-12-03T00:27:03.317Z,0.4
2018-12-03T00:27:10.013Z,0.4
2018-12-03T00:27:16.770Z,0.4
2018-12-03T00:27:23.446Z,0.4
2018-12-03T00:27:30.177Z,0.7
2018-12-03T00:27:36.907Z,0.6
2018-12-03T00:27:43.620Z,0.9
2018-12-03T00:27:50.420Z,1
2018-12-03T00:27:58.148Z,0.6
2018-12-03T00:28:04.940Z,0.8
2018-12-03T00:28:11.604Z,0.7
2018-12-03T00:28:18.320Z,0.5
2018-12-03T00:28:26.040Z,0.6
2018-12-03T00:28:32.759Z,0.4
2018-12-03T00:28:39.530Z,0.6
2018-12-03T00:28:46.241Z,0.5
2018-12-03T00:28:53.965Z,0.5
2018-12-03T00:29:00.681Z,0.5
2018-12-03T00:29:07.407Z,0.5
2018-12-03T00:29:14.092Z,0.4
2018-12-03T00:29:20.799Z,0.4
2018-12-03T00:29:27.488Z,0.4
2018-12-03T00:29:34.179Z,0.4
2018-12-03T00:29:40.931Z,0.5
2018-12-03T00:29:47.699Z,0.4
2018-12-03T00:29:55.429Z,0.5
2018-12-03T00:30:02.139Z,0.5
2018-12-03T00:30:08.853Z,0.5
2018-12-03T00:30:15.568Z,0.5
2018-12-03T00:30:22.267Z,0.7
2018-12-03T00:30:28.961Z,0.7
2018-12-03T00:30:35.676Z,0.7
2018-12-03T00:30:42.376Z,0.8
2018-12-03T00:30:49.064Z,0.6
2018-12-03T00:30:56.786Z,1
2018-12-03T00:31:04.606Z,0.8
2018-12-03T00:31:11.368Z,0.8
2018-12-03T00:31:19.068Z,0.8
2018-12-03T00:31:25.799Z,0.5
2018-12-03T00:31:32.573Z,0.5
2018-12-03T00:31:39.277Z,0.5
2018-12-03T00:31:45.982Z,0.4
2018-12-03T00:31:52.779Z,0.5
2018-12-03T00:32:00.536Z,0.5
2018-12-03T00:32:07.297Z,0.5
2018-12-03T00:32:14.030Z,0.5
2018-12-03T00:32:21.777Z,0.5
2018-12-03T00:32:30.502Z,0.5
2018-12-03T00:32:37.256Z,0.6
2018-12-03T00:32:43.983Z,0.6
2018-12-03T00:32:50.657Z,0.4
2018-12-03T00:32:57.362Z,0.3
2018-12-03T00:33:04.054Z,0.3
2018-12-03T00:33:10.817Z,0.4
2018-12-03T00:33:17.537Z,0.4
2018-12-03T00:33:24.259Z,1.1
2018-12-03T00:33:31.017Z,1.1
2018-12-03T00:33:37.695Z,1.1
2018-12-03T00:33:44.405Z,1.1
2018-12-03T00:33:51.113Z,1.1
2018-12-03T00:33:57.866Z,0.3
2018-12-03T00:34:04.618Z,0.3
2018-12-03T00:34:11.394Z,0.4
2018-12-03T00:34:18.096Z,0.4
2018-12-03T00:34:24.828Z,0.4
2018-12-03T00:34:31.557Z,0.3
2018-12-03T00:34:38.278Z,0.3
2018-12-03T00:34:45.022Z,0.3
2018-12-03T00:34:51.778Z,0.3
2018-12-03T00:34:58.398Z,0.4
2018-12-03T00:35:05.196Z,0.8
2018-12-03T00:35:11.897Z,0.8
2018-12-03T00:35:18.668Z,0.9
2018-12-03T00:35:25.400Z,0.6
2018-12-03T00:35:32.117Z,0.8
2018-12-03T00:35:38.821Z,0.4
2018-12-03T00:35:45.493Z,0.4
2018-12-03T00:35:52.175Z,0.8
2018-12-03T00:35:58.917Z,0.8
2018-12-03T00:36:05.664Z,0.7
2018-12-03T00:36:12.411Z,0.6
2018-12-03T00:36:19.067Z,0.6
2018-12-03T00:36:25.838Z,0.7
2018-12-03T00:36:32.506Z,0.7
2018-12-03T00:36:39.238Z,0.7
2018-12-03T00:36:45.929Z,0.7
2018-12-03T00:36:52.685Z,0.9
2018-12-03T00:36:59.445Z,0.3
2018-12-03T00:37:06.101Z,0.3
2018-12-03T00:37:12.802Z,0.3
2018-12-03T00:37:19.497Z,0.3
2018-12-03T00:37:26.218Z,0.3
2018-12-03T00:37:32.879Z,0.3
2018-12-03T00:37:39.593Z,0.4
2018-12-03T00:37:46.289Z,0.3
2018-12-03T00:37:52.956Z,0.4
2018-12-03T00:37:59.667Z,0.4
2018-12-03T00:38:06.388Z,0.4
2018-12-03T00:38:13.128Z,0.3
2018-12-03T00:38:19.757Z,0.4
2018-12-03T00:38:26.481Z,0.3
2018-12-03T00:38:33.223Z,0.3
2018-12-03T00:38:39.902Z,1.1
2018-12-03T00:38:46.601Z,1.2
2018-12-03T00:38:54.322Z,1.1
2018-12-03T00:39:01.142Z,1.2
2018-12-03T00:39:08.897Z,0.5
2018-12-03T00:39:15.584Z,0.6
2018-12-03T00:39:23.313Z,0.6
2018-12-03T00:39:30.038Z,0.6
2018-12-03T00:39:37.524Z,0.6
2018-12-03T00:39:44.269Z,0.5
2018-12-03T00:39:51.000Z,0.6
2018-12-03T00:39:58.736Z,0.6
2018-12-03T00:40:05.450Z,0.6
2018-12-03T00:40:12.161Z,0.6
2018-12-03T00:40:18.864Z,0.7
2018-12-03T00:40:25.606Z,0.5
2018-12-03T00:40:32.276Z,0.5
2018-12-03T00:40:38.973Z,0.4
2018-12-03T00:40:45.693Z,0.2
2018-12-03T00:40:53.405Z,0.3
2018-12-03T00:41:00.068Z,0.3
2018-12-03T00:41:06.787Z,0.3
2018-12-03T00:41:13.495Z,0.3
2018-12-03T00:41:20.201Z,0.4
2018-12-03T00:41:26.888Z,0.4
2018-12-03T00:41:33.613Z,0.3
2018-12-03T00:41:40.397Z,0.4
2018-12-03T00:41:47.133Z,0.6
2018-12-03T00:41:53.795Z,0.6
2018-12-03T00:42:00.583Z,0.6
2018-12-03T00:42:07.341Z,0.6
2018-12-03T00:42:14.033Z,0.6
2018-12-03T00:42:20.735Z,0.4
2018-12-03T00:42:27.412Z,0.4
2018-12-03T00:42:34.099Z,0.4
2018-12-03T00:42:40.776Z,0.4
2018-12-03T00:42:47.509Z,0.4
2018-12-03T00:42:54.160Z,0.3
2018-12-03T00:43:00.908Z,0.3
2018-12-03T00:43:07.654Z,0.3
2018-12-03T00:43:14.400Z,0.4
2018-12-03T00:43:21.087Z,0.8
2018-12-03T00:43:28.789Z,0.7
2018-12-03T00:43:35.479Z,0.9
2018-12-03T00:43:42.218Z,0.9
2018-12-03T00:43:48.876Z,0.6
2018-12-03T00:43:55.607Z,0.3
2018-12-03T00:44:02.315Z,0.3
2018-12-03T00:44:08.968Z,0.4
2018-12-03T00:44:15.631Z,0.4
2018-12-03T00:44:22.361Z,0.4
2018-12-03T00:44:29.074Z,0.4
2018-12-03T00:44:35.822Z,0.3
2018-12-03T00:44:42.510Z,0.3
2018-12-03T00:44:49.243Z,0.3
2018-12-03T00:44:56.002Z,0.3
2018-12-03T00:45:02.651Z,0.3
2018-12-03T00:45:09.320Z,0.3
2018-12-03T00:45:16.071Z,0.3
2018-12-03T00:45:22.811Z,0.3
2018-12-03T00:45:30.623Z,0.4
2018-12-03T00:45:37.359Z,0.4
2018-12-03T00:45:45.084Z,0.3
2018-12-03T00:45:51.821Z,0.4
2018-12-03T00:45:59.596Z,0.4
2018-12-03T00:46:06.370Z,0.5
2018-12-03T00:46:14.059Z,0.5
2018-12-03T00:46:20.781Z,0.5
2018-12-03T00:46:28.509Z,0.5
2018-12-03T00:46:37.167Z,0.5
2018-12-03T00:46:43.880Z,0.5
2018-12-03T00:46:50.691Z,0.5
2018-12-03T00:46:57.539Z,0.4
2018-12-03T00:47:05.289Z,0.4
2018-12-03T00:47:13.062Z,0.4
2018-12-03T00:47:19.813Z,0.4
2018-12-03T00:47:26.486Z,0.3
2018-12-03T00:47:33.188Z,0.8
2018-12-03T00:47:39.976Z,0.7
2018-12-03T00:47:46.698Z,0.7
2018-12-03T00:47:53.413Z,0.7
2018-12-03T00:48:00.145Z,0.7
2018-12-03T00:48:06.896Z,0.2
2018-12-03T00:48:13.630Z,0.2
2018-12-03T00:48:21.277Z,0.3
2018-12-03T00:48:29.006Z,0.3
2018-12-03T00:48:35.751Z,0.3
2018-12-03T00:48:42.507Z,0.4
2018-12-03T00:48:49.280Z,0.3
2018-12-03T00:48:55.986Z,0.6
2018-12-03T00:49:02.709Z,0.7
2018-12-03T00:49:09.461Z,0.5
2018-12-03T00:49:16.191Z,0.5
2018-12-03T00:49:22.915Z,0.6
2018-12-03T00:49:29.618Z,0.3
2018-12-03T00:49:36.386Z,0.3
2018-12-03T00:49:43.146Z,0.3
2018-12-03T00:49:49.868Z,0.3
2018-12-03T00:49:56.663Z,0.5
2018-12-03T00:50:03.365Z,0.4
2018-12-03T00:50:10.059Z,0.4
2018-12-03T00:50:16.784Z,0.5
2018-12-03T00:50:23.492Z,0.5
2018-12-03T00:50:30.175Z,0.3
2018-12-03T00:50:36.892Z,0.3
2018-12-03T00:50:43.625Z,0.2
2018-12-03T00:50:50.368Z,0.3
2018-12-03T00:50:57.017Z,0.3
2018-12-03T00:51:03.726Z,0.3
2018-12-03T00:51:10.499Z,0.3
2018-12-03T00:51:17.219Z,0.3
2018-12-03T00:51:23.899Z,0.3
2018-12-03T00:51:30.653Z,0.2
2018-12-03T00:51:37.402Z,0.3
2018-12-03T00:51:44.159Z,0.5
2018-12-03T00:51:50.941Z,0.4
2018-12-03T00:51:57.641Z,0.4
2018-12-03T00:52:04.339Z,0.4
2018-12-03T00:52:11.122Z,0.3
2018-12-03T00:52:17.818Z,0.3
2018-12-03T00:52:24.538Z,0.3
2018-12-03T00:52:31.281Z,0.5
2018-12-03T00:52:38.005Z,0.6
2018-12-03T00:52:44.773Z,0.5
2018-12-03T00:52:51.444Z,0.4
2018-12-03T00:52:58.167Z,0.4
2018-12-03T00:53:04.912Z,0.3
2018-12-03T00:53:11.622Z,0.3
2018-12-03T00:53:18.386Z,0.3
2018-12-03T00:53:25.122Z,0.3
2018-12-03T00:53:31.799Z,0.3
2018-12-03T00:53:38.497Z,0.3
2018-12-03T00:53:45.128Z,0.3
2018-12-03T00:53:51.828Z,0.3
2018-12-03T00:53:58.635Z,0.3
2018-12-03T00:54:05.389Z,0.3
2018-12-03T00:54:12.102Z,0.4
2018-12-03T00:54:18.777Z,0.4
2018-12-03T00:54:25.558Z,0.4
2018-12-03T00:54:32.270Z,0.4
2018-12-03T00:54:38.972Z,0.4
2018-12-03T00:54:45.741Z,0.3
2018-12-03T00:54:52.476Z,0.2
2018-12-03T00:54:59.164Z,0.2
2018-12-03T00:55:05.914Z,0.2
2018-12-03T00:55:12.650Z,0.3
2018-12-03T00:55:19.411Z,0.3
2018-12-03T00:55:26.201Z,0.3
2018-12-03T00:55:32.959Z,0.4
2018-12-03T00:55:39.632Z,0.4
2018-12-03T00:55:46.357Z,0.3
2018-12-03T00:55:53.065Z,0.3
2018-12-03T00:55:59.786Z,0.2
2018-12-03T00:56:06.511Z,0.2
2018-12-03T00:56:13.236Z,0.2
2018-12-03T00:56:19.940Z,0.2
2018-12-03T00:56:26.672Z,0.3
2018-12-03T00:56:33.374Z,0.2
2018-12-03T00:56:40.093Z,0.2
2018-12-03T00:56:46.819Z,0.2
2018-12-03T00:56:53.476Z,0.2
2018-12-03T00:57:00.202Z,0.3
2018-12-03T00:57:06.915Z,0.3
2018-12-03T00:57:13.584Z,0.3
2018-12-03T00:57:20.326Z,0.4
2018-12-03T00:57:27.009Z,0.4
2018-12-03T00:57:33.776Z,0.4
2018-12-03T00:57:40.523Z,0.3
2018-12-03T00:57:48.279Z,0.4
2018-12-03T00:57:56.014Z,0.4
2018-12-03T00:58:02.788Z,0.4
2018-12-03T00:58:09.513Z,0.4
2018-12-03T00:58:16.258Z,0.4
2018-12-03T00:58:22.996Z,0.4
2018-12-03T00:58:30.656Z,0.3
2018-12-03T00:58:37.367Z,0.3
2018-12-03T00:58:44.076Z,0.3
2018-12-03T00:58:50.762Z,0.4
2018-12-03T00:58:57.485Z,0.6
2018-12-03T00:59:04.174Z,0.6
2018-12-03T00:59:10.935Z,0.6
2018-12-03T00:59:17.599Z,0.9
2018-12-03T00:59:24.390Z,1.3
2018-12-03T00:59:31.128Z,1.3
2018-12-03T00:59:37.876Z,1.3
2018-12-03T00:59:44.624Z,1.3
2018-12-03T00:59:51.314Z,0.4
2018-12-03T00:59:58.077Z,0.4
2018-12-03T01:00:05.799Z,0.3
2018-12-03T01:00:12.573Z,0.4
2018-12-03T01:00:19.276Z,0.4
2018-12-03T01:00:27.049Z,0.4
2018-12-03T01:00:33.803Z,0.5
2018-12-03T01:00:41.092Z,0.5
2018-12-03T01:00:50.576Z,0.5
2018-12-03T01:00:57.367Z,0.5
2018-12-03T01:01:04.127Z,0.5
2018-12-03T01:01:10.877Z,0.4
2018-12-03T01:01:17.547Z,0.4
2018-12-03T01:01:24.279Z,0.4
2018-12-03T01:01:31.647Z,0.4
2018-12-03T01:01:38.380Z,0.5
2018-12-03T01:01:45.124Z,0.4
2018-12-03T01:01:51.813Z,0.4
2018-12-03T01:01:58.479Z,0.4
2018-12-03T01:02:05.158Z,0.3
2018-12-03T01:02:11.866Z,0.4
2018-12-03T01:02:18.577Z,0.4
2018-12-03T01:02:25.297Z,0.4
2018-12-03T01:02:31.984Z,0.4
2018-12-03T01:02:38.703Z,0.3
2018-12-03T01:02:45.451Z,0.3
2018-12-03T01:02:52.225Z,0.4
2018-12-03T01:02:58.955Z,0.3
2018-12-03T01:03:06.603Z,0.4
2018-12-03T01:03:13.328Z,0.4
2018-12-03T01:03:20.047Z,0.3
2018-12-03T01:03:26.735Z,0.3
2018-12-03T01:03:34.426Z,0.2
2018-12-03T01:03:41.158Z,0.3
2018-12-03T01:03:47.860Z,0.4
2018-12-03T01:03:54.573Z,0.4
2018-12-03T01:04:01.308Z,0.9
2018-12-03T01:04:07.970Z,0.7
2018-12-03T01:04:14.688Z,0.7
2018-12-03T01:04:21.428Z,0.6
2018-12-03T01:04:28.071Z,0.4
2018-12-03T01:04:34.849Z,0.4
2018-12-03T01:04:41.615Z,0.4
2018-12-03T01:04:48.359Z,0.4
2018-12-03T01:04:55.101Z,0.4
2018-12-03T01:05:02.616Z,0.4
2018-12-03T01:05:09.407Z,0.4
2018-12-03T01:05:17.192Z,0.7
2018-12-03T01:05:24.888Z,0.8
2018-12-03T01:05:31.577Z,0.8
2018-12-03T01:05:38.270Z,0.8
2018-12-03T01:05:45.005Z,0.3
2018-12-03T01:05:51.775Z,0.3
2018-12-03T01:05:58.514Z,0.3
2018-12-03T01:06:06.282Z,0.3
2018-12-03T01:06:13.055Z,0.3
2018-12-03T01:06:19.770Z,0.3
2018-12-03T01:06:26.449Z,0.3
2018-12-03T01:06:33.165Z,0.8
2018-12-03T01:06:39.886Z,0.8
2018-12-03T01:06:48.593Z,0.9
2018-12-03T01:06:55.325Z,0.9
2018-12-03T01:07:03.007Z,0.3
2018-12-03T01:07:09.697Z,0.3
2018-12-03T01:07:16.368Z,0.3
2018-12-03T01:07:23.087Z,0.3
2018-12-03T01:07:29.918Z,0.3
2018-12-03T01:07:36.587Z,0.3
2018-12-03T01:07:44.299Z,0.3
2018-12-03T01:07:51.635Z,0.3
2018-12-03T01:07:58.407Z,0.3
2018-12-03T01:08:06.146Z,0.4
2018-12-03T01:08:13.892Z,0.3
2018-12-03T01:08:20.603Z,0.4
2018-12-03T01:08:29.353Z,0.4
2018-12-03T01:08:36.061Z,0.5
2018-12-03T01:08:42.864Z,0.4
2018-12-03T01:08:49.572Z,0.4
2018-12-03T01:08:56.378Z,0.5
2018-12-03T01:09:03.742Z,0.4
2018-12-03T01:09:10.501Z,0.4
2018-12-03T01:09:18.188Z,0.3
2018-12-03T01:09:24.960Z,0.4
2018-12-03T01:09:31.650Z,0.4
2018-12-03T01:09:38.365Z,0.4
2018-12-03T01:09:45.098Z,0.4
2018-12-03T01:09:51.822Z,0.2
2018-12-03T01:09:58.496Z,0.2
2018-12-03T01:10:05.185Z,0.2
2018-12-03T01:10:11.916Z,0.2
2018-12-03T01:10:19.613Z,0.2
2018-12-03T01:10:26.276Z,0.2
2018-12-03T01:10:33.958Z,0.2
2018-12-03T01:10:40.702Z,0.2
2018-12-03T01:10:47.401Z,0.3
2018-12-03T01:10:54.138Z,0.3
2018-12-03T01:11:00.899Z,0.3
2018-12-03T01:11:07.581Z,0.3
2018-12-03T01:11:14.227Z,0.3
2018-12-03T01:11:20.969Z,0.4
2018-12-03T01:11:27.695Z,0.5
2018-12-03T01:11:34.394Z,0.5
2018-12-03T01:11:41.103Z,0.4
2018-12-03T01:11:47.798Z,0.4
2018-12-03T01:11:54.487Z,0.2
2018-12-03T01:12:01.228Z,0.2
2018-12-03T01:12:07.919Z,0.2
2018-12-03T01:12:14.625Z,0.3
2018-12-03T01:12:21.438Z,0.3
2018-12-03T01:12:28.267Z,0.4
2018-12-03T01:12:36.022Z,0.4
2018-12-03T01:12:42.728Z,1
2018-12-03T01:12:49.446Z,1
2018-12-03T01:12:56.125Z,0.9
2018-12-03T01:13:02.821Z,0.7
2018-12-03T01:13:09.532Z,0.4
2018-12-03T01:13:16.239Z,0.3
2018-12-03T01:13:22.906Z,0.3
2018-12-03T01:13:29.687Z,0.3
2018-12-03T01:13:36.354Z,0.3
2018-12-03T01:13:43.080Z,0.3
2018-12-03T01:13:49.834Z,0.3
2018-12-03T01:13:56.499Z,0.3
2018-12-03T01:14:03.227Z,0.2
2018-12-03T01:14:10.898Z,0.3
2018-12-03T01:14:18.622Z,0.3
2018-12-03T01:14:25.386Z,0.2
2018-12-03T01:14:32.158Z,0.2
2018-12-03T01:14:38.863Z,0.2
2018-12-03T01:14:45.590Z,0.3
2018-12-03T01:14:52.278Z,0.3
2018-12-03T01:14:58.969Z,0.3
2018-12-03T01:15:05.631Z,0.2
2018-12-03T01:15:12.314Z,0.2
2018-12-03T01:15:19.039Z,0.2
2018-12-03T01:15:26.811Z,0.3
2018-12-03T01:15:33.607Z,0.3
2018-12-03T01:15:40.326Z,0.3
2018-12-03T01:15:47.121Z,0.3
2018-12-03T01:15:53.876Z,0.4
2018-12-03T01:16:00.626Z,0.4
2018-12-03T01:16:08.129Z,0.3
2018-12-03T01:16:15.687Z,0.4
2018-12-03T01:16:22.458Z,0.3
2018-12-03T01:16:29.190Z,0.3
2018-12-03T01:16:35.905Z,0.4
2018-12-03T01:16:43.576Z,0.3
2018-12-03T01:16:50.258Z,0.3
2018-12-03T01:16:56.950Z,0.3
2018-12-03T01:17:03.683Z,0.3
2018-12-03T01:17:10.374Z,0.3
2018-12-03T01:17:17.102Z,0.3
2018-12-03T01:17:23.808Z,0.3
2018-12-03T01:17:30.508Z,0.3
2018-12-03T01:17:37.257Z,0.2
2018-12-03T01:17:43.959Z,0.6
2018-12-03T01:17:50.666Z,0.5
2018-12-03T01:17:57.462Z,0.5
2018-12-03T01:18:04.121Z,0.5
2018-12-03T01:18:10.883Z,0.5
2018-12-03T01:18:17.639Z,0.2
2018-12-03T01:18:24.377Z,0.2
2018-12-03T01:18:31.120Z,0.3
2018-12-03T01:18:37.835Z,0.3
2018-12-03T01:18:44.574Z,0.3
2018-12-03T01:18:52.108Z,0.3
2018-12-03T01:18:58.890Z,0.4
2018-12-03T01:19:05.669Z,0.4
2018-12-03T01:19:13.447Z,0.4
2018-12-03T01:19:20.133Z,0.4
2018-12-03T01:19:27.841Z,0.4
2018-12-03T01:19:34.568Z,0.4
2018-12-03T01:19:41.296Z,0.3
2018-12-03T01:19:48.067Z,0.3
2018-12-03T01:19:55.823Z,0.4
2018-12-03T01:20:02.549Z,0.4
2018-12-03T01:20:10.250Z,0.4
2018-12-03T01:20:16.903Z,0.4
2018-12-03T01:20:23.603Z,0.2
2018-12-03T01:20:30.365Z,0.3
2018-12-03T01:20:37.092Z,0.3
2018-12-03T01:20:43.899Z,0.3
2018-12-03T01:20:50.617Z,0.3
2018-12-03T01:20:57.373Z,0.2
2018-12-03T01:21:04.088Z,0.2
2018-12-03T01:21:10.738Z,0.2
2018-12-03T01:21:17.466Z,0.2
2018-12-03T01:21:24.175Z,0.3
2018-12-03T01:21:30.878Z,0.3
2018-12-03T01:21:37.609Z,0.3
2018-12-03T01:21:44.353Z,0.3
2018-12-03T01:21:52.080Z,0.3
2018-12-03T01:21:58.828Z,0.3
2018-12-03T01:22:05.525Z,0.3
2018-12-03T01:22:12.230Z,0.3
2018-12-03T01:22:18.993Z,0.3
2018-12-03T01:22:25.750Z,0.3
2018-12-03T01:22:32.431Z,0.3
2018-12-03T01:22:39.167Z,0.3
2018-12-03T01:22:45.865Z,0.3
2018-12-03T01:22:52.559Z,0.2
2018-12-03T01:22:59.294Z,0.2
2018-12-03T01:23:06.945Z,0.2
2018-12-03T01:23:13.666Z,0.1
2018-12-03T01:23:20.425Z,0.2
2018-12-03T01:23:27.191Z,0.2
2018-12-03T01:23:33.971Z,0.3
2018-12-03T01:23:40.690Z,0.3
2018-12-03T01:23:47.385Z,0.3
2018-12-03T01:23:54.086Z,1
2018-12-03T01:24:00.751Z,1.1
2018-12-03T01:24:07.442Z,1
2018-12-03T01:24:14.178Z,1.6
2018-12-03T01:24:20.962Z,0.8
2018-12-03T01:24:27.674Z,0.8
2018-12-03T01:24:34.368Z,0.9
2018-12-03T01:24:41.089Z,0.6
2018-12-03T01:24:47.781Z,0.4
2018-12-03T01:24:54.541Z,0.3
2018-12-03T01:25:01.263Z,0.2
2018-12-03T01:25:07.982Z,0.1
2018-12-03T01:25:14.644Z,0.1
2018-12-03T01:25:21.373Z,0.1
2018-12-03T01:25:28.073Z,0.1
2018-12-03T01:25:34.790Z,0.2
2018-12-03T01:25:41.483Z,0.2
2018-12-03T01:25:48.178Z,0.3
2018-12-03T01:25:54.863Z,0.3
2018-12-03T01:26:01.619Z,0.3
2018-12-03T01:26:08.368Z,0.3
2018-12-03T01:26:15.058Z,0.3
2018-12-03T01:26:21.756Z,0.3
2018-12-03T01:26:29.472Z,2.3
2018-12-03T01:26:36.218Z,2.3
2018-12-03T01:26:42.910Z,2.3
2018-12-03T01:26:50.680Z,2.3
2018-12-03T01:26:57.380Z,0.3
2018-12-03T01:27:04.066Z,0.3
2018-12-03T01:27:10.760Z,0.3
2018-12-03T01:27:17.461Z,0.3
2018-12-03T01:27:24.164Z,0.3
2018-12-03T01:27:30.811Z,0.3
2018-12-03T01:27:37.570Z,0.6
2018-12-03T01:27:44.310Z,0.6
2018-12-03T01:27:51.070Z,0.5
2018-12-03T01:27:57.835Z,0.5
2018-12-03T01:28:04.591Z,0.2
2018-12-03T01:28:11.281Z,0.2
2018-12-03T01:28:18.017Z,0.2
2018-12-03T01:28:24.693Z,0.2
2018-12-03T01:28:31.426Z,0.2
2018-12-03T01:28:38.164Z,0.3
2018-12-03T01:28:44.918Z,0.3
2018-12-03T01:28:51.675Z,0.2
2018-12-03T01:28:58.429Z,0.2
2018-12-03T01:29:05.129Z,0.2
2018-12-03T01:29:11.898Z,0.2
2018-12-03T01:29:18.611Z,0.2
2018-12-03T01:29:25.330Z,0.2
2018-12-03T01:29:32.023Z,0.2
2018-12-03T01:29:38.810Z,0.2
2018-12-03T01:29:45.564Z,0.1
2018-12-03T01:29:52.300Z,0.2
2018-12-03T01:29:58.979Z,0.2
2018-12-03T01:30:06.660Z,0.3
2018-12-03T01:30:13.363Z,0.3
2018-12-03T01:30:20.069Z,0.3
2018-12-03T01:30:26.845Z,0.4
2018-12-03T01:30:33.606Z,0.4
2018-12-03T01:30:40.365Z,0.3
2018-12-03T01:30:47.097Z,0.3
2018-12-03T01:30:53.812Z,0.3
2018-12-03T01:31:00.539Z,0.2
2018-12-03T01:31:07.252Z,0.3
2018-12-03T01:31:13.963Z,0.2
2018-12-03T01:31:20.682Z,0.3
2018-12-03T01:31:27.404Z,0.4
2018-12-03T01:31:34.038Z,0.4
2018-12-03T01:31:40.721Z,0.3
2018-12-03T01:31:48.386Z,0.1
2018-12-03T01:31:57.079Z,0.1
2018-12-03T01:32:03.809Z,0.1
2018-12-03T01:32:10.513Z,0.2
2018-12-03T01:32:17.217Z,0.2
2018-12-03T01:32:23.928Z,0.2
2018-12-03T01:32:30.625Z,0.3
2018-12-03T01:32:38.291Z,0.2
2018-12-03T01:32:44.954Z,0.2
2018-12-03T01:32:52.661Z,0.2
2018-12-03T01:32:59.372Z,0.3
2018-12-03T01:33:06.075Z,0.2
2018-12-03T01:33:12.808Z,0.2
2018-12-03T01:33:19.483Z,0.3
2018-12-03T01:33:27.177Z,0.2
2018-12-03T01:33:33.946Z,0.3
2018-12-03T01:33:40.671Z,0.3
2018-12-03T01:33:47.426Z,0.2
2018-12-03T01:33:54.953Z,0.2
2018-12-03T01:34:01.711Z,0.2
2018-12-03T01:34:08.424Z,0.2
2018-12-03T01:34:15.196Z,0.3